Time;durP1;ratioP1;P1;durP2;ratioP2;P2;SDS_P1;SDS_P2;PMS_P1;PMS_P2;Temp;Humidity;BMP_temperature;BMP_pressure;BME280_temperature;BME280_humidity;BME280_pressure;Samples;Min_cycle;Max_cycle;Signal;HPM_P1;HPM_P2
2022/05/05 00:00:19;;;;;;;4.10;3.90;;;;;;;9.33;76.71;101359.69;6079759;23;20177;-75
2022/05/05 00:02:46;;;;;;;5.93;5.63;;;;;;;9.32;76.65;101355.34;6079086;23;20014;-75
2022/05/05 00:05:12;;;;;;;4.00;3.80;;;;;;;9.92;76.49;101450.97;6115327;23;20014;-73
2022/05/05 00:07:39;;;;;;;4.07;3.88;;;;;;;9.91;76.41;101446.63;6049932;23;20040;-74
2022/05/05 00:14:23;;;;;;;4.07;3.88;;;;;;;10.02;76.93;101438.34;6084409;23;20006;-75
2022/05/05 00:15:37;;;;;;;4.00;3.80;;;;;;;10.15;76.58;101444.84;6079657;23;20046;-75
2022/05/05 00:18:04;;;;;;;4.10;3.90;;;;;;;9.92;77.19;101403.78;6106564;23;20014;-75
2022/05/05 00:20:30;;;;;;;4.40;4.10;;;;;;;9.63;77.08;101349.84;6079134;23;20048;-75
2022/05/05 00:22:56;;;;;;;5.53;5.32;;;;;;;10.00;76.65;101395.59;6107326;23;20100;-74
2022/05/05 00:25:23;;;;;;;4.13;3.92;;;;;;;10.10;76.77;101407.47;6086974;23;20074;-74
2022/05/05 00:27:49;;;;;;;4.07;3.88;;;;;;;10.34;76.98;101446.78;6118444;23;20089;-74
2022/05/05 00:30:16;;;;;;;4.13;3.92;;;;;;;10.37;76.15;101446.69;6087464;23;20028;-75
2022/05/05 00:32:42;;;;;;;4.10;3.90;;;;;;;9.96;76.67;101376.53;6096007;23;20036;-74
2022/05/05 00:35:09;;;;;;;4.63;4.43;;;;;;;9.92;76.28;101361.84;6114184;23;20018;-75
2022/05/05 00:37:35;;;;;;;4.10;3.90;;;;;;;10.43;76.42;101432.47;6090159;23;20125;-75
2022/05/05 00:40:02;;;;;;;4.30;4.10;;;;;;;9.25;75.95;101247.34;6112274;23;20707;-75
2022/05/05 00:42:29;;;;;;;4.50;4.30;;;;;;;9.87;76.79;101347.19;6081736;23;20034;-73
2022/05/05 00:44:56;;;;;;;6.00;5.70;;;;;;;10.47;76.18;101441.94;6110701;23;20096;-73
2022/05/05 00:47:22;;;;;;;4.10;3.90;;;;;;;10.47;76.44;101440.16;6086263;23;20348;-76
2022/05/05 00:49:49;;;;;;;5.55;5.35;;;;;;;10.46;77.72;101442.81;6079022;23;20248;-74
2022/05/05 00:52:16;;;;;;;4.53;4.32;;;;;;;10.05;77.39;101371.84;6113453;23;20042;-75
2022/05/05 00:54:42;;;;;;;4.40;4.20;;;;;;;9.79;76.88;101327.34;6079542;23;20026;-74
2022/05/05 00:57:09;;;;;;;4.10;3.90;;;;;;;10.31;77.88;101423.31;6109564;23;20623;-75
2022/05/05 00:59:37;;;;;;;4.45;4.25;;;;;;;10.46;78.26;101427.09;6084610;23;20104;-74
2022/05/05 01:02:04;;;;;;;4.25;4.05;;;;;;;10.31;78.15;101410.19;6080513;23;20049;-75
2022/05/05 01:04:35;;;;;;;4.28;4.07;;;;;;;10.19;77.56;101401.84;6113855;23;20029;-73
2022/05/05 01:07:03;;;;;;;7.10;4.97;;;;;;;10.42;77.07;101421.09;6077479;23;20026;-76
2022/05/05 01:09:30;;;;;;;4.60;4.40;;;;;;;10.32;78.43;101409.25;6108614;23;20043;-73
2022/05/05 01:11:56;;;;;;;5.90;5.60;;;;;;;10.42;78.47;101436.84;6083795;23;20006;-75
2022/05/05 01:14:23;;;;;;;4.28;4.07;;;;;;;10.25;78.85;101424.38;6109628;23;20574;-74
2022/05/05 01:16:49;;;;;;;5.50;5.30;;;;;;;10.39;79.41;101444.84;6077599;23;20032;-76
2022/05/05 01:19:16;;;;;;;4.47;4.18;;;;;;;10.23;79.33;101426.19;6111718;23;20333;-75
2022/05/05 01:21:50;;;;;;;4.68;4.38;;;;;;;10.24;79.55;101419.19;6077342;23;20434;-73
2022/05/05 01:24:17;;;;;;;4.20;4.00;;;;;;;9.78;80.16;101349.25;6087186;23;20540;-75
2022/05/05 01:29:28;;;;;;;4.20;4.00;;;;;;;9.80;79.07;101346.56;6075235;23;20039;-73
2022/05/05 01:31:57;;;;;;;5.07;4.88;;;;;;;9.72;79.25;101327.66;6110968;23;20033;-74
2022/05/05 01:34:23;;;;;;;4.00;3.80;;;;;;;9.76;78.98;101334.47;6080303;23;20237;-74
2022/05/05 01:36:50;;;;;;;6.20;5.75;;;;;;;10.55;79.52;101455.59;6105031;23;20359;-73
2022/05/05 01:39:17;;;;;;;4.10;3.90;;;;;;;10.57;79.07;101467.72;6084895;23;20073;-75
2022/05/05 01:41:44;;;;;;;4.65;4.45;;;;;;;10.61;79.11;101457.13;6103424;23;20029;-75
2022/05/05 01:44:11;;;;;;;3.97;3.80;;;;;;;9.93;79.53;101347.78;6082395;23;20033;-75
2022/05/05 01:46:37;;;;;;;4.10;3.90;;;;;;;10.03;79.92;101376.28;6102381;23;20118;-74
2022/05/05 01:49:05;;;;;;;4.22;4.03;;;;;;;10.58;80.33;101461.59;6075719;23;20012;-75
2022/05/05 01:51:31;;;;;;;5.53;4.82;;;;;;;10.27;80.03;101425.16;6114177;23;20017;-74
2022/05/05 01:53:57;;;;;;;5.53;5.30;;;;;;;10.60;79.96;101460.66;6077239;23;20184;-74
2022/05/05 01:56:24;;;;;;;4.07;3.88;;;;;;;10.58;79.41;101469.47;6112333;23;20189;-75
2022/05/05 01:58:50;;;;;;;5.43;5.22;;;;;;;10.57;79.37;101462.47;6052397;23;20395;-74
2022/05/05 02:01:17;;;;;;;4.07;3.88;;;;;;;10.55;79.70;101468.72;6106284;23;20014;-74
2022/05/05 02:03:43;;;;;;;4.55;4.32;;;;;;;9.94;80.02;101390.59;6107731;23;20068;-75
2022/05/05 02:06:10;;;;;;;4.00;3.80;;;;;;;9.92;80.18;101371.44;6107819;23;20207;-74
2022/05/05 02:08:37;;;;;;;4.30;4.10;;;;;;;10.55;79.96;101476.59;6082054;23;20014;-75
2022/05/05 02:11:03;;;;;;;4.45;4.25;;;;;;;10.20;80.91;101423.69;6077103;23;20081;-74
2022/05/05 02:13:30;;;;;;;4.20;4.00;;;;;;;9.89;80.90;101367.19;6108261;23;20509;-73
2022/05/05 02:15:57;;;;;;;4.90;4.70;;;;;;;10.23;81.65;101420.09;6081849;23;20101;-76
2022/05/05 02:18:23;;;;;;;4.60;4.40;;;;;;;10.43;81.23;101466.59;6105860;23;20037;-75
2022/05/05 02:20:50;;;;;;;5.82;5.53;;;;;;;10.51;80.39;101498.63;6073055;23;20040;-74
2022/05/05 02:23:16;;;;;;;4.10;3.90;;;;;;;10.24;80.54;101462.00;6111792;23;20016;-75
2022/05/05 02:25:43;;;;;;;5.25;5.03;;;;;;;10.50;81.05;101482.03;6075765;23;20038;-74
2022/05/05 02:28:09;;;;;;;4.72;4.30;;;;;;;10.48;81.03;101473.34;6080611;23;20399;-75
2022/05/05 02:30:36;;;;;;;4.40;4.20;;;;;;;10.25;81.71;101450.59;6074308;23;20107;-75
2022/05/05 02:33:03;;;;;;;5.38;4.97;;;;;;;9.93;81.95;101404.63;6105442;23;20035;-75
2022/05/05 02:35:29;;;;;;;3.80;3.70;;;;;;;10.31;82.15;101479.25;6082275;23;20040;-75
2022/05/05 02:40:41;;;;;;;4.18;4.03;;;;;;;9.58;83.39;101373.59;6077533;23;20020;-74
2022/05/05 02:43:08;;;;;;;4.18;3.97;;;;;;;10.18;84.18;101457.88;6107409;23;20061;-75
2022/05/05 02:45:34;;;;;;;4.20;4.00;;;;;;;9.78;84.16;101398.19;6072734;23;20010;-76
2022/05/05 02:48:01;;;;;;;4.35;4.15;;;;;;;9.77;83.87;101388.63;6108184;23;20290;-75
2022/05/05 02:50:27;;;;;;;4.10;3.90;;;;;;;10.32;84.15;101478.34;6077122;23;20438;-75
2022/05/05 02:52:54;;;;;;;6.40;6.00;;;;;;;10.34;83.90;101475.66;6105113;23;20020;-75
2022/05/05 02:55:22;;;;;;;4.60;4.38;;;;;;;10.32;83.83;101478.34;6081453;23;20026;-75
2022/05/05 02:57:49;;;;;;;5.45;5.25;;;;;;;9.90;84.83;101415.22;6097809;23;20025;-73
2022/05/05 03:00:15;;;;;;;4.20;4.00;;;;;;;9.73;84.89;101389.66;6082281;23;20021;-76
2022/05/05 03:02:44;;;;;;;4.13;3.92;;;;;;;10.26;85.02;101481.16;6105420;23;20568;-74
2022/05/05 03:05:14;;;;;;;4.47;4.28;;;;;;;10.24;84.92;101477.72;6078025;23;20014;-73
2022/05/05 03:07:41;;;;;;;4.40;4.20;;;;;;;10.22;85.51;101482.19;6105140;23;20284;-75
2022/05/05 03:10:09;;;;;;;4.43;4.13;;;;;;;10.03;85.41;101460.22;6082703;23;21313;-75
2022/05/05 03:12:35;;;;;;;4.20;4.00;;;;;;;10.17;85.77;101481.53;6085404;23;20076;-74
2022/05/05 03:15:02;;;;;;;4.65;4.45;;;;;;;9.93;86.33;101457.91;6076689;23;20020;-73
2022/05/05 03:17:28;;;;;;;4.30;4.10;;;;;;;9.31;87.71;101357.13;6077774;23;20060;-75
2022/05/05 03:19:55;;;;;;;5.97;5.68;;;;;;;10.05;86.93;101484.59;6084521;23;20427;-76
2022/05/05 03:22:22;;;;;;;4.65;4.45;;;;;;;10.01;87.86;101509.25;6111216;23;20050;-74
2022/05/05 03:24:48;;;;;;;5.55;5.35;;;;;;;9.97;87.84;101495.38;6105843;23;20029;-76
2022/05/05 03:27:14;;;;;;;4.43;4.22;;;;;;;9.91;88.22;101488.59;6090250;23;20024;-75
2022/05/05 03:29:41;;;;;;;4.30;4.10;;;;;;;9.70;88.01;101460.53;6053465;23;20234;-75
2022/05/05 03:32:08;;;;;;;4.43;4.22;;;;;;;9.86;87.62;101493.16;6088083;23;20083;-74
2022/05/05 03:34:34;;;;;;;4.40;4.20;;;;;;;9.68;87.61;101471.09;6082494;23;20232;-75
2022/05/05 03:37:01;;;;;;;3.92;3.80;;;;;;;9.82;88.03;101490.69;6091862;23;20112;-73
2022/05/05 03:39:27;;;;;;;4.53;4.32;;;;;;;9.80;87.85;101493.34;6119513;23;20021;-75
2022/05/05 03:41:54;;;;;;;4.20;4.00;;;;;;;9.51;87.37;101453.34;6089796;23;20038;-75
2022/05/05 03:44:20;;;;;;;4.07;3.88;;;;;;;9.77;86.95;101490.84;6119295;23;20081;-77
2022/05/05 03:46:47;;;;;;;4.35;4.15;;;;;;;9.68;86.63;101478.06;6088283;23;20648;-76
2022/05/05 03:49:14;;;;;;;4.20;4.00;;;;;;;9.50;86.66;101449.00;6122892;23;20013;-73
2022/05/05 03:51:40;;;;;;;4.20;4.00;;;;;;;9.41;87.26;101444.09;6086349;23;20020;-75
2022/05/05 03:54:06;;;;;;;4.60;4.40;;;;;;;9.71;87.35;101491.09;6088696;23;20404;-73
2022/05/05 03:56:33;;;;;;;4.25;4.05;;;;;;;9.69;87.20;101495.53;6110780;23;20104;-74
2022/05/05 03:58:59;;;;;;;4.63;4.43;;;;;;;9.67;87.54;101492.09;6080892;23;20773;-76
2022/05/05 04:01:26;;;;;;;4.22;4.03;;;;;;;9.66;87.35;101512.22;6086742;23;20038;-75
2022/05/05 04:03:52;;;;;;;5.50;5.30;;;;;;;9.64;88.86;101505.31;6105575;23;20024;-74
2022/05/05 04:06:20;;;;;;;3.80;3.70;;;;;;;9.59;88.50;101495.00;6060849;23;20010;-73
2022/05/05 04:08:46;;;;;;;5.30;5.10;;;;;;;9.27;88.10;101428.84;6087133;23;20081;-73
2022/05/05 04:11:13;;;;;;;4.63;4.43;;;;;;;9.69;88.15;101506.00;6115455;23;20028;-72
2022/05/05 04:13:39;;;;;;;4.00;3.80;;;;;;;9.15;88.04;101416.19;6080043;23;20025;-75
2022/05/05 04:16:08;;;;;;;4.20;4.00;;;;;;;9.06;87.27;101391.19;6105165;23;20094;-75
2022/05/05 04:18:35;;;;;;;3.80;3.70;;;;;;;9.64;87.67;101486.97;6084904;23;20023;-74
2022/05/05 04:21:02;;;;;;;4.78;4.47;;;;;;;9.29;86.80;101420.94;6103106;23;20020;-75
2022/05/05 04:23:29;;;;;;;4.20;4.00;;;;;;;9.54;88.26;101476.81;6084215;23;20047;-73
2022/05/05 04:26:11;;;;;;;4.18;3.97;;;;;;;9.51;89.04;101495.25;6104242;23;20083;-73
2022/05/05 04:28:40;;;;;;;4.10;3.85;;;;;;;9.55;89.80;101502.09;6080593;23;20131;-73
2022/05/05 04:31:13;;;;;;;4.55;4.35;;;;;;;9.41;89.12;101470.28;6106822;23;20108;-73
2022/05/05 04:33:40;;;;;;;4.13;3.92;;;;;;;9.45;88.98;101471.03;6081522;23;20021;-74
2022/05/05 04:36:10;;;;;;;4.00;3.83;;;;;;;9.52;88.59;101481.25;6112096;23;20030;-73
2022/05/05 04:38:37;;;;;;;4.75;4.55;;;;;;;9.85;88.55;101517.66;6071909;23;20016;-73
2022/05/05 04:41:04;;;;;;;4.30;4.10;;;;;;;9.71;87.56;101488.47;6077435;23;20014;-75
2022/05/05 04:43:30;;;;;;;3.90;3.78;;;;;;;10.03;86.46;101525.78;6112112;23;20491;-72
2022/05/05 04:45:57;;;;;;;5.47;5.28;;;;;;;10.12;87.09;101538.53;6052130;23;20041;-74
2022/05/05 04:48:24;;;;;;;4.00;3.80;;;;;;;10.26;86.12;101538.03;6112054;23;20036;-74
2022/05/05 04:50:50;;;;;;;5.28;5.03;;;;;;;10.22;86.30;101512.81;6079174;23;20360;-76
2022/05/05 04:53:16;;;;;;;4.10;3.90;;;;;;;9.47;85.79;101354.78;6083988;23;20025;-74
2022/05/05 04:55:43;;;;;;;4.10;3.90;;;;;;;9.49;85.14;101332.00;6085741;23;20016;-74
2022/05/05 04:58:09;;;;;;;4.53;4.32;;;;;;;11.14;83.86;101527.59;6108710;23;20092;-75
2022/05/05 05:00:36;;;;;;;4.20;4.00;;;;;;;11.46;82.29;101539.38;6085614;23;20025;-75
2022/05/05 05:03:02;;;;;;;4.10;3.90;;;;;;;11.60;80.32;101507.25;6080800;23;20021;-75
2022/05/05 05:05:29;;;;;;;4.20;3.90;;;;;;;12.04;78.61;101514.97;6080543;23;20029;-75
2022/05/05 05:07:56;;;;;;;5.32;5.13;;;;;;;12.76;76.43;101519.50;6112058;23;20039;-75
2022/05/05 05:10:22;;;;;;;4.35;4.15;;;;;;;13.40;73.11;101550.72;6079219;23;20311;-75
2022/05/05 05:12:48;;;;;;;5.78;5.50;;;;;;;13.41;72.52;101504.94;6106677;23;20360;-75
2022/05/05 05:15:15;;;;;;;4.75;4.55;;;;;;;13.29;70.71;101477.41;6085749;23;20029;-74
2022/05/05 05:17:42;;;;;;;4.70;4.50;;;;;;;13.43;69.80;101503.09;6106418;23;20037;-73
2022/05/05 05:20:09;;;;;;;4.38;4.18;;;;;;;13.38;69.79;101508.59;6081676;23;20352;-75
2022/05/05 05:22:36;;;;;;;4.72;4.53;;;;;;;13.42;69.83;101525.97;6094434;23;20036;-76
2022/05/05 05:25:03;;;;;;;4.40;4.20;;;;;;;13.67;68.51;101574.81;6084457;23;20805;-72
2022/05/05 05:27:29;;;;;;;4.70;4.50;;;;;;;13.55;68.74;101571.03;6105977;23;20481;-74
2022/05/05 05:29:56;;;;;;;6.18;5.82;;;;;;;13.18;69.52;101534.16;6075081;23;20038;-75
2022/05/05 05:32:22;;;;;;;5.20;4.90;;;;;;;13.45;70.50;101580.31;6113076;23;20458;-75
2022/05/05 05:34:49;;;;;;;5.88;5.57;;;;;;;13.29;69.51;101551.22;6073569;23;20034;-75
2022/05/05 05:37:15;;;;;;;4.57;4.38;;;;;;;13.61;68.91;101585.69;6104901;23;20071;-74
2022/05/05 05:39:42;;;;;;;5.35;5.05;;;;;;;13.36;68.41;101526.28;6078065;23;20089;-74
2022/05/05 05:42:08;;;;;;;4.60;4.40;;;;;;;14.09;67.60;101576.16;6105506;23;20024;-75
2022/05/05 05:44:35;;;;;;;5.30;5.00;;;;;;;14.59;66.82;101596.38;6055173;23;20591;-76
2022/05/05 05:47:01;;;;;;;4.95;4.70;;;;;;;13.88;64.89;101404.00;6077192;23;20022;-74
2022/05/05 05:49:28;;;;;;;4.93;4.70;;;;;;;15.06;61.89;101597.34;6075294;23;20021;-75
2022/05/05 05:51:54;;;;;;;6.45;6.15;;;;;;;14.71;63.15;101536.72;6107716;23;20030;-75
2022/05/05 05:54:21;;;;;;;5.43;5.13;;;;;;;15.48;61.15;101606.38;6076648;23;20391;-75
2022/05/05 05:56:48;;;;;;;6.57;6.28;;;;;;;15.09;60.30;101534.53;6105638;23;20062;-76
2022/05/05 05:59:14;;;;;;;5.13;4.93;;;;;;;15.36;60.52;101540.03;6082551;23;20014;-74
2022/05/05 06:04:26;;;;;;;4.95;4.75;;;;;;;14.55;58.20;101372.94;6079888;23;20021;-76
2022/05/05 06:06:53;;;;;;;6.65;6.35;;;;;;;15.71;59.06;101568.81;6101695;23;20100;-75
2022/05/05 06:09:19;;;;;;;5.72;5.32;;;;;;;15.82;59.11;101583.25;6077691;23;20110;-75
2022/05/05 06:11:46;;;;;;;5.43;5.22;;;;;;;15.65;59.59;101576.28;6081498;23;20049;-76
2022/05/05 06:14:13;;;;;;;7.32;6.72;;;;;;;15.33;59.22;101576.38;6095949;23;20009;-77
2022/05/05 06:16:39;;;;;;;5.35;5.05;;;;;;;12.16;62.99;101264.44;6081837;23;20475;-74
2022/05/05 06:19:06;;;;;;;5.40;5.00;;;;;;;14.33;64.69;101617.13;6107255;23;20021;-76
2022/05/05 06:21:32;;;;;;;5.38;5.07;;;;;;;13.45;66.10;101575.06;6081263;23;20030;-73
2022/05/05 06:23:59;;;;;;;6.35;6.05;;;;;;;13.59;66.30;101592.81;6101416;23;20021;-74
2022/05/05 06:26:27;;;;;;;5.20;5.00;;;;;;;13.95;65.53;101627.91;6074954;23;20041;-75
2022/05/05 06:28:55;;;;;;;7.15;6.75;;;;;;;14.29;65.76;101626.16;6090843;23;20016;-75
2022/05/05 06:31:22;;;;;;;4.85;4.65;;;;;;;14.63;63.85;101605.84;6074932;23;20049;-75
2022/05/05 06:33:49;;;;;;;6.82;6.53;;;;;;;14.44;63.74;101619.19;6095358;23;20482;-76
2022/05/05 06:36:16;;;;;;;5.40;5.10;;;;;;;14.71;62.30;101629.22;6107263;23;20641;-75
2022/05/05 06:38:43;;;;;;;6.30;5.80;;;;;;;14.61;62.52;101589.22;6068926;23;20030;-71
2022/05/05 06:41:13;;;;;;;5.65;5.35;;;;;;;14.98;61.07;101631.28;6100740;23;20020;-74
2022/05/05 06:43:40;;;;;;;5.13;4.82;;;;;;;14.12;59.48;101439.59;6073105;23;20010;-74
2022/05/05 06:46:07;;;;;;;6.00;5.60;;;;;;;15.07;59.74;101596.38;6103267;23;20441;-74
2022/05/05 06:48:34;;;;;;;5.50;5.20;;;;;;;14.73;58.13;101561.28;6077718;23;20010;-75
2022/05/05 06:51:00;;;;;;;5.63;5.32;;;;;;;15.21;58.40;101599.09;6104891;23;20215;-75
2022/05/05 06:53:27;;;;;;;5.53;5.22;;;;;;;15.26;58.34;101598.84;6081105;23;20052;-75
2022/05/05 06:55:57;;;;;;;5.00;4.80;;;;;;;12.85;60.42;101296.09;6107102;23;20032;-77
2022/05/05 06:58:23;;;;;;;5.90;5.45;;;;;;;15.27;59.47;101638.41;6083910;23;20025;-75
2022/05/05 07:03:35;;;;;;;4.90;4.70;;;;;;;15.41;57.41;101594.44;6083147;23;20198;-74
2022/05/05 07:06:02;;;;;;;4.90;4.70;;;;;;;15.33;57.74;101577.25;6107389;23;20267;-76
2022/05/05 07:10:52;;;;;;;5.95;5.55;;;;;;;15.64;57.11;101644.25;6083064;23;20108;-75
2022/05/05 07:11:16;;;;;;;5.40;5.10;;;;;;;14.87;57.06;101544.66;6102952;23;20010;-75
2022/05/05 07:13:42;;;;;;;5.72;5.47;;;;;;;15.66;57.27;101621.19;6041597;23;20020;-75
2022/05/05 07:16:09;;;;;;;5.70;5.40;;;;;;;15.93;55.33;101650.47;6110498;23;20093;-76
2022/05/05 07:18:35;;;;;;;5.68;5.38;;;;;;;15.97;55.62;101651.16;6074162;23;20018;-73
2022/05/05 07:21:02;;;;;;;6.55;6.05;;;;;;;16.16;55.80;101650.91;6108990;23;20376;-75
2022/05/05 07:23:29;;;;;;;5.80;5.50;;;;;;;15.03;58.05;101598.34;6078182;23;20498;-75
2022/05/05 07:25:55;;;;;;;7.47;6.93;;;;;;;15.30;59.25;101651.47;6072889;23;20022;-74
2022/05/05 07:28:22;;;;;;;5.25;4.97;;;;;;;15.04;59.59;101655.56;6107919;23;20583;-74
2022/05/05 07:30:49;;;;;;;6.38;6.07;;;;;;;15.50;58.04;101654.78;6074575;23;20032;-76
2022/05/05 07:33:15;;;;;;;5.28;5.03;;;;;;;15.00;59.42;101648.75;6108010;23;20387;-73
2022/05/05 07:35:42;;;;;;;5.07;4.82;;;;;;;14.65;58.99;101597.84;6078075;23;20470;-73
2022/05/05 07:38:08;;;;;;;5.07;4.88;;;;;;;15.41;57.81;101665.88;6108660;23;20482;-73
2022/05/05 07:40:35;;;;;;;5.45;5.18;;;;;;;15.39;56.32;101617.50;6078949;23;20113;-73
2022/05/05 07:43:01;;;;;;;5.22;4.93;;;;;;;15.98;54.80;101614.97;6106493;23;20037;-75
2022/05/05 07:45:28;;;;;;;5.72;5.43;;;;;;;15.88;53.74;101612.00;6078139;23;20051;-74
2022/05/05 07:47:58;;;;;;;6.70;6.40;;;;;;;16.10;52.56;101623.00;6106728;23;20029;-74
2022/05/05 07:50:25;;;;;;;4.95;4.75;;;;;;;16.68;52.29;101637.09;6076497;23;20021;-74
2022/05/05 07:52:51;;;;;;;6.68;6.38;;;;;;;16.22;48.57;101589.63;6055327;23;20051;-75
2022/05/05 07:55:18;;;;;;;5.50;5.10;;;;;;;16.30;49.30;101669.47;6091198;23;20016;-74
2022/05/05 07:57:47;;;;;;;5.55;5.35;;;;;;;16.62;49.46;101671.94;6083566;23;20510;-75
2022/05/05 08:00:15;;;;;;;5.50;5.20;;;;;;;15.99;50.11;101670.44;6106627;23;20080;-75
2022/05/05 08:02:41;;;;;;;6.00;5.40;;;;;;;15.85;52.20;101678.34;6076852;23;20670;-73
2022/05/05 08:05:11;;;;;;;5.65;5.35;;;;;;;15.65;51.83;101563.91;6112951;23;20029;-75
2022/05/05 08:07:45;;;;;;;5.47;5.18;;;;;;;16.45;50.10;101614.66;6081080;23;20046;-76
2022/05/05 08:10:12;;;;;;;5.10;4.90;;;;;;;16.71;50.14;101676.66;6078909;23;20019;-74
2022/05/05 08:12:39;;;;;;;5.05;4.75;;;;;;;17.30;49.76;101679.13;6110788;23;20046;-73
2022/05/05 08:15:07;;;;;;;5.40;5.13;;;;;;;17.32;48.19;101653.34;6076355;23;20189;-76
2022/05/05 08:17:34;;;;;;;6.10;5.80;;;;;;;16.91;47.28;101605.63;6087987;23;20025;-75
2022/05/05 08:20:02;;;;;;;5.40;5.20;;;;;;;17.49;47.35;101680.59;6074852;23;20363;-74
2022/05/05 08:22:29;;;;;;;5.40;5.18;;;;;;;17.37;46.87;101681.38;6079240;23;20573;-75
2022/05/05 08:30:26;;;;;;;7.85;5.78;;;;;;;17.79;45.61;101690.13;6108627;23;20101;-75
2022/05/05 08:32:52;;;;;;;6.55;6.25;;;;;;;16.65;43.48;101555.09;6081205;23;20026;-73
2022/05/05 08:35:19;;;;;;;5.95;5.55;;;;;;;17.15;42.99;101643.81;6108817;23;20021;-74
2022/05/05 08:37:45;;;;;;;7.50;7.10;;;;;;;17.94;42.30;101673.16;6080691;23;20388;-74
2022/05/05 08:40:12;;;;;;;5.50;5.20;;;;;;;17.99;42.41;101648.97;6083596;23;20057;-76
2022/05/05 08:42:39;;;;;;;5.60;5.30;;;;;;;17.53;43.16;101539.59;6080267;23;20539;-74
2022/05/05 08:45:06;;;;;;;5.78;5.47;;;;;;;18.45;41.78;101670.56;6106291;23;20088;-73
2022/05/05 08:47:33;;;;;;;5.85;5.45;;;;;;;18.04;43.81;101707.94;6053325;23;20032;-72
2022/05/05 08:50:01;;;;;;;6.45;6.03;;;;;;;18.13;43.65;101694.88;6106163;23;20029;-74
2022/05/05 08:52:53;;;;;;;5.78;5.47;;;;;;;17.93;42.16;101695.38;6080795;23;20345;-74
2022/05/05 08:55:21;;;;;;;5.90;5.50;;;;;;;17.93;42.86;101687.41;6082932;23;20018;-75
2022/05/05 08:57:48;;;;;;;7.47;7.05;;;;;;;16.53;42.05;101423.41;6076280;23;20371;-76
2022/05/05 09:00:16;;;;;;;5.88;5.57;;;;;;;18.28;43.19;101693.00;6112239;23;20536;-74
2022/05/05 09:02:43;;;;;;;6.20;5.80;;;;;;;18.06;44.54;101667.06;6078590;23;20349;-73
2022/05/05 09:05:11;;;;;;;5.45;5.13;;;;;;;17.47;45.18;101630.25;6113380;23;20039;-75
2022/05/05 09:07:51;;;;;;;6.22;5.72;;;;;;;18.09;42.55;101687.22;6078972;23;20018;-75
2022/05/05 09:10:21;;;;;;;5.57;5.28;;;;;;;18.20;41.18;101666.09;6108432;23;20028;-74
2022/05/05 09:12:58;;;;;;;6.93;6.63;;;;;;;17.52;41.47;101619.34;6057671;23;20506;-75
2022/05/05 09:15:33;;;;;;;6.13;5.72;;;;;;;17.81;42.52;101699.69;6077983;23;20021;-74
2022/05/05 09:18:12;;;;;;;6.50;5.97;;;;;;;17.47;42.38;101699.25;6103434;23;20292;-73
2022/05/05 09:20:39;;;;;;;5.13;4.82;;;;;;;17.72;42.88;101694.97;6083027;23;20323;-74
2022/05/05 09:23:27;;;;;;;5.88;5.57;;;;;;;17.77;41.57;101681.41;6102395;23;20029;-75
2022/05/05 09:25:54;;;;;;;7.15;6.63;;;;;;;17.03;41.95;101533.25;6074420;23;20173;-73
2022/05/05 09:28:22;;;;;;;6.47;5.93;;;;;;;17.51;41.51;101644.19;6112481;23;20021;-74
2022/05/05 09:30:52;;;;;;;7.30;6.90;;;;;;;17.95;40.96;101664.25;6076821;23;20028;-74
2022/05/05 09:33:42;;;;;;;5.60;5.18;;;;;;;18.04;41.25;101707.94;6108386;23;20050;-74
2022/05/05 09:36:09;;;;;;;5.78;5.47;;;;;;;18.02;40.70;101612.44;6075310;23;20079;-75
2022/05/05 09:39:00;;;;;;;6.30;5.90;;;;;;;18.59;41.52;101701.50;6107409;23;20020;-76
2022/05/05 09:41:28;;;;;;;6.05;5.55;;;;;;;18.46;39.98;101703.28;6075821;23;20034;-74
2022/05/05 09:43:57;;;;;;;7.45;7.05;;;;;;;18.28;40.68;101669.09;6077529;23;20013;-74
2022/05/05 09:46:25;;;;;;;5.93;5.63;;;;;;;18.45;40.99;101697.13;6077733;23;20279;-75
2022/05/05 09:48:53;;;;;;;6.82;6.50;;;;;;;18.33;42.73;101644.84;6110365;23;20115;-73
2022/05/05 09:51:20;;;;;;;7.68;7.28;;;;;;;18.70;41.99;101698.94;6076521;23;20018;-75
2022/05/05 09:59:25;;;;;;;7.40;6.85;;;;;;;18.97;40.60;101703.28;6071058;23;20077;-74
2022/05/05 10:01:54;;;;;;;7.20;6.80;;;;;;;18.57;40.43;101711.38;6105359;23;20025;-75
2022/05/05 10:04:23;;;;;;;5.25;4.97;;;;;;;18.59;39.94;101650.97;6082625;23;20458;-75
2022/05/05 10:06:50;;;;;;;7.82;7.38;;;;;;;18.88;39.87;101717.22;6076818;23;20391;-73
2022/05/05 10:09:19;;;;;;;6.20;5.80;;;;;;;18.92;38.82;101646.88;6107945;23;20290;-75
2022/05/05 10:11:46;;;;;;;6.43;6.13;;;;;;;19.55;38.75;101723.97;6048528;23;20014;-75
2022/05/05 10:14:16;;;;;;;5.70;5.40;;;;;;;19.38;39.57;101704.72;6089935;23;20010;-73
2022/05/05 10:16:43;;;;;;;6.35;6.03;;;;;;;19.02;39.92;101701.13;6082743;23;20557;-74
2022/05/05 10:19:10;;;;;;;6.47;6.07;;;;;;;18.92;40.01;101727.56;6093356;23;20021;-73
2022/05/05 10:21:49;;;;;;;6.22;5.82;;;;;;;19.09;39.59;101712.19;6079712;23;20029;-75
2022/05/05 10:24:26;;;;;;;5.68;5.32;;;;;;;19.18;40.43;101718.66;6107662;23;20087;-73
2022/05/05 10:26:55;;;;;;;7.80;7.30;;;;;;;19.08;39.17;101721.13;6106462;23;20032;-75
2022/05/05 10:29:31;;;;;;;5.63;5.35;;;;;;;19.33;39.23;101715.72;6080993;23;20235;-74
2022/05/05 10:32:19;;;;;;;6.90;6.50;;;;;;;19.70;38.30;101712.16;6075245;23;20042;-73
2022/05/05 10:34:52;;;;;;;8.25;7.55;;;;;;;20.08;37.31;101711.09;6107955;23;20519;-74
2022/05/05 10:37:20;;;;;;;6.15;5.80;;;;;;;19.80;37.35;101709.69;6087329;23;20282;-74
2022/05/05 10:39:59;;;;;;;8.27;7.78;;;;;;;19.97;38.37;101705.75;6107620;23;20038;-73
2022/05/05 10:42:40;;;;;;;7.03;6.45;;;;;;;19.61;40.00;101649.78;6080830;23;20387;-75
2022/05/05 10:45:29;;;;;;;7.72;6.25;;;;;;;19.31;37.95;101719.47;6056635;23;20240;-75
2022/05/05 10:47:58;;;;;;;7.75;7.25;;;;;;;19.70;38.91;101704.16;6102955;23;20029;-75
2022/05/05 10:50:31;;;;;;;6.05;5.68;;;;;;;19.90;37.29;101703.53;6080161;23;20357;-74
2022/05/05 10:52:58;;;;;;;7.95;7.32;;;;;;;19.47;36.79;101636.66;6097674;23;20052;-74
2022/05/05 10:55:33;;;;;;;5.60;5.20;;;;;;;19.10;36.01;101535.59;6079398;23;20467;-73
2022/05/05 10:59:13;;;;;;;5.88;5.57;;;;;;;21.19;36.32;101702.41;6095785;23;20329;-74
2022/05/05 11:01:46;;;;;;;6.97;6.57;;;;;;;21.22;35.58;101703.03;5990703;23;20035;-73
2022/05/05 11:04:15;;;;;;;6.43;6.07;;;;;;;21.67;36.13;101696.75;6080968;23;20013;-76
2022/05/05 11:06:42;;;;;;;7.13;6.65;;;;;;;21.55;34.79;101709.28;6101641;23;20017;-75
2022/05/05 11:09:09;;;;;;;6.35;5.95;;;;;;;21.65;35.00;101704.00;6073147;23;20135;-74
2022/05/05 11:11:42;;;;;;;8.32;7.82;;;;;;;21.86;35.64;101701.38;6083405;23;20018;-74
2022/05/05 11:21:32;;;;;;;;;;;;;;;21.24;35.52;101703.75;6077087;23;20030;-76
2022/05/05 11:22:44;;;;;;;6.97;6.53;;;;;;;19.33;38.17;101709.56;6079970;23;20041;-72
2022/05/05 11:25:11;;;;;;;6.22;5.88;;;;;;;18.89;38.78;101612.53;6084013;23;20028;-76
2022/05/05 11:27:37;;;;;;;5.95;5.65;;;;;;;18.15;39.15;101492.88;6081066;23;20045;-73
2022/05/05 11:30:04;;;;;;;5.90;5.50;;;;;;;19.41;38.58;101707.19;6104386;23;20209;-73
2022/05/05 11:32:35;;;;;;;8.57;6.68;;;;;;;19.11;38.10;101692.47;6076252;23;20036;-72
2022/05/05 11:35:02;;;;;;;7.65;7.15;;;;;;;19.15;38.87;101701.09;6106224;23;20103;-73
2022/05/05 11:37:30;;;;;;;6.50;6.00;;;;;;;19.75;37.98;101687.88;6076712;23;20040;-74
2022/05/05 11:40:00;;;;;;;6.55;6.25;;;;;;;20.05;37.13;101639.41;6074323;23;20021;-75
2022/05/05 11:42:27;;;;;;;6.05;5.57;;;;;;;20.77;36.87;101716.44;6110272;23;20431;-75
2022/05/05 11:44:53;;;;;;;7.28;6.68;;;;;;;20.61;36.22;101619.94;6075489;23;20468;-74
2022/05/05 11:47:21;;;;;;;6.55;6.15;;;;;;;21.29;35.45;101653.50;6108595;23;20220;-71
2022/05/05 11:49:51;;;;;;;7.30;6.70;;;;;;;21.41;35.67;101699.72;6074638;23;20033;-73
2022/05/05 11:52:20;;;;;;;6.22;5.82;;;;;;;21.29;34.71;101647.31;6076827;23;20366;-72
2022/05/05 11:54:48;;;;;;;7.50;6.85;;;;;;;20.59;35.12;101627.22;6076573;23;20036;-73
2022/05/05 11:57:34;;;;;;;6.40;6.00;;;;;;;21.05;35.40;101693.72;6103293;23;20450;-72
2022/05/05 12:02:48;;;;;;;7.70;7.00;;;;;;;19.60;37.64;101655.22;6077404;23;20225;-73
2022/05/05 12:05:15;;;;;;;8.55;6.70;;;;;;;18.62;39.31;101605.56;6077787;23;20264;-72